Ireland METAR reports

 

EIDW - Dublin Airport, Ireland
Distance from station: WNW 13km
Updated: 20/10/2020 15:00
Mostly cloudy
Mostly cloudy
 Wind from S
Wind: S 26 km/h
Temperature: 14°C
Dew Point: 10°C
Humidity: 77%
Barometer: 986 hPa
Clouds: Mostly cloudy
Visibility: 10 km
Cloud details: Few Clouds 549 m
Partly cloudy 823 m
Mostly cloudy 1128 m
2020/10/20 14:00 EIDW 201400Z 18014KT 9999 FEW018CB SCT027 BKN037 14/10 Q0986 NOSIG
EIME - Casement (mil), Ireland
Distance from station: WSW 26km
Updated: 20/10/2020 15:00
Overcast
Overcast
 Wind from S
Wind: S 39 km/h, Gust: 61 km/h
Temperature: 13°C
Dew Point: 10°C
Humidity: 82%
Barometer: 986 hPa
Clouds: Overcast
Visibility: 10 km
Cloud details: Overcast 762 m
2020/10/20 14:00 EIME 201400Z 19021G33KT 9999 OVC025 13/10 Q0986
 
EGAC - Belfast Harbour, United Kingdom
Distance from station: N 140km
Updated: 20/10/2020 14:50
Light rain, Overcast
Light rain, Overcast
 Wind from SSE
Wind: SSE 31 km/h
Temperature: 14°C
Dew Point: 11°C
Humidity: 82%
Barometer: 987 hPa
Summary: Light rain
Clouds: Overcast
Visibility: 8 km
Cloud details: Mostly cloudy 579 m
Mostly cloudy 792 m
Overcast 1494 m
2020/10/20 13:50 EGAC 201350Z AUTO 16017KT 8000 -RA BKN019/// BKN026/// OVC049/// 14/11 Q0987
EGAA - Belfast/Aldergro, United Kingdom
Distance from station: N 141km
Updated: 20/10/2020 14:50
Light rain, Mostly cloudy
Light rain, Mostly cloudy
 Wind from SE
Wind: SE 22 km/h
Temperature: 13°C
Dew Point: 12°C
Humidity: 94%
Barometer: 987 hPa
Summary: Light rain
Clouds: Mostly cloudy
Visibility: 8 km
Cloud details: Partly cloudy 549 m
Mostly cloudy 1219 m
2020/10/20 13:50 EGAA 201350Z 14012KT 8000 -RA SCT018 BKN040 13/12 Q0987
 
EIWF - Waterford Arpt, Ireland
Distance from station: SSW 148km
Updated: 20/10/2020 15:00
Mostly cloudy
Mostly cloudy
 Wind from SSW
Wind: SSW 59 km/h, Gust: 83 km/h
Temperature: 14°C
Dew Point: 12°C
Humidity: 88%
Barometer: 987 hPa
Clouds: Mostly cloudy
Visibility: 9 km
Cloud details: Partly cloudy 610 m
Mostly cloudy 701 m
2020/10/20 14:00 EIWF 201400Z 20032G45KT 9000 SCT020 BKN023 14/12 Q0987 R21/1/////
EIKN - Connaught Apt, Ireland
Distance from station: WNW 191km
Updated: 20/10/2020 15:00
Light rain, Overcast
Light rain, Overcast
 Wind from SSE
Wind: SSE 17 km/h
Temperature: 12°C
Dew Point: 12°C
Humidity: 100%
Barometer: 979 hPa
Summary: Light rain
Clouds: Overcast
Visibility: 5 km
Cloud details: Overcast 91 m
2020/10/20 14:00 EIKN 201400Z 15009KT 110V190 5000 -RA OVC003 12/12 Q0979 NOSIG
 
EISG - Sligo Arpt, Ireland
Distance from station: WNW 195km
Updated: 20/10/2020 15:00
Rain, Overcast
Rain, Overcast
 Wind from ESE
Wind: ESE 20 km/h
Temperature: 13°C
Dew Point: 13°C
Humidity: 100%
Barometer: 979 hPa
Summary: Rain
Clouds: Overcast
Visibility: 2 km
Cloud details: Overcast 427 m
2020/10/20 14:00 EISG 201400Z 11011KT 2400 RA OVC014 13/13 Q0979
EGAE - Eglinton/Londond, United Kingdom
Distance from station: NNW 198km
Updated: 20/10/2020 14:50
Nearby showers, Mostly cloudy
Nearby showers, Mostly cloudy
 Wind from SE
Wind: SE 26 km/h
Temperature: 15°C
Dew Point: 13°C
Humidity: 88%
Barometer: 985 hPa
Summary: Nearby Showers
Clouds: Mostly cloudy
Visibility: 9 km
Cloud details: Few Clouds 305 m
Partly cloudy 549 m
Mostly cloudy 975 m
2020/10/20 13:50 EGAE 201350Z 13014KT 9000 VCSH FEW010 SCT018 BKN032 15/13 Q0985
 
EINN - Shannon Airport, Ireland
Distance from station: WSW 204km
Updated: 20/10/2020 15:00
Light rain, Drizzle, Mostly cloudy
Light rain, Drizzle, Mostly cloudy
 Wind from SW
Wind: SW 31 km/h
Temperature: 14°C
Dew Point: 12°C
Humidity: 88%
Barometer: 981 hPa
Summary: Light rain, Drizzle
Clouds: Mostly cloudy
Visibility: 6 km
Cloud details: Few Clouds 213 m
Mostly cloudy 488 m
Mostly cloudy 762 m
2020/10/20 14:00 EINN 201400Z 22017KT 6000 -RADZ FEW007 BKN016 BKN025 14/12 Q0981 NOSIG
EICK - Cork Arpt/Corcai, Ireland
Distance from station: SW 234km
Updated: 20/10/2020 15:00
Mostly cloudy
Mostly cloudy
 Wind from SSW
Wind: SSW 48 km/h, Gust: 70 km/h
Temperature: 12°C
Dew Point: 11°C
Humidity: 94%
Barometer: 985 hPa
Clouds: Mostly cloudy
Visibility: 10 km
Cloud details: Mostly cloudy 244 m
Mostly cloudy 488 m
2020/10/20 14:00 EICK 201400Z 21026G38KT 9999 BKN008 BKN016 12/11 Q0985 NOSIG